Time;durP1;ratioP1;P1;durP2;ratioP2;P2;SDS_P1;SDS_P2;PMS_P1;PMS_P2;Temp;Humidity;BMP_temperature;BMP_pressure;BME280_temperature;BME280_humidity;BME280_pressure;Samples;Min_cycle;Max_cycle;Signal;HPM_P1;HPM_P2
2023/01/11 00:00:56;;;;;;;27.98;16.95;;;9.10;99.90;;;;;;5030834;28;20264;-55
2023/01/11 00:03:22;;;;;;;25.83;16.98;;;9.60;99.90;;;;;;5038291;28;20040;-56
2023/01/11 00:05:47;;;;;;;27.83;16.38;;;9.20;99.90;;;;;;5030663;28;20034;-55
2023/01/11 00:08:13;;;;;;;26.70;14.88;;;9.60;99.90;;;;;;5032854;28;20033;-55
2023/01/11 00:10:39;;;;;;;25.63;17.17;;;9.50;99.90;;;;;;5035724;28;20041;-54
2023/01/11 00:13:04;;;;;;;24.92;16.98;;;9.40;99.90;;;;;;5012642;28;20091;-53
2023/01/11 00:15:39;;;;;;;23.52;15.70;;;9.40;99.90;;;;;;5040811;28;20128;-55
2023/01/11 00:18:06;;;;;;;25.33;16.20;;;9.10;99.90;;;;;;5014959;28;20041;-55
2023/01/11 00:20:31;;;;;;;24.83;16.23;;;9.90;99.90;;;;;;5022240;28;20410;-55
2023/01/11 00:22:59;;;;;;;23.95;15.30;;;9.40;99.90;;;;;;5040289;28;20033;-54
2023/01/11 00:25:24;;;;;;;22.95;14.88;;;9.60;99.90;;;;;;5037898;28;20037;-54
2023/01/11 00:27:51;;;;;;;22.45;15.25;;;;;;;;;;5039157;28;20037;-53
2023/01/11 00:30:18;;;;;;;26.88;17.60;;;9.50;99.90;;;;;;5035337;28;20056;-55
2023/01/11 00:32:43;;;;;;;21.40;14.98;;;9.70;99.90;;;;;;5039577;28;20108;-52
2023/01/11 00:35:09;;;;;;;26.23;15.73;;;9.60;99.90;;;;;;5040832;28;20475;-57
2023/01/11 00:37:35;;;;;;;23.08;15.50;;;9.50;99.90;;;;;;5034476;28;20115;-56
2023/01/11 00:40:00;;;;;;;24.52;14.50;;;9.50;99.90;;;;;;5039975;28;20103;-56
2023/01/11 00:48:03;;;;;;;19.65;12.05;;;9.70;99.90;;;;;;5027408;28;20273;-57
2023/01/11 00:50:32;;;;;;;21.90;12.50;;;10.10;99.90;;;;;;5038107;28;20045;-55
2023/01/11 00:52:59;;;;;;;19.90;12.32;;;9.70;99.90;;;;;;5042338;28;20030;-56
2023/01/11 00:55:25;;;;;;;17.17;11.13;;;9.40;99.90;;;;;;5037167;28;20471;-55
2023/01/11 00:57:51;;;;;;;16.95;10.80;;;9.80;99.90;;;;;;5040575;28;20052;-53
2023/01/11 01:00:19;;;;;;;17.88;10.98;;;9.70;99.90;;;;;;5018617;28;20495;-53
2023/01/11 01:02:46;;;;;;;18.58;10.75;;;9.40;99.90;;;;;;5039132;28;20213;-55
2023/01/11 01:05:12;;;;;;;18.48;10.73;;;9.50;99.90;;;;;;5035577;28;20041;-54
2023/01/11 01:07:38;;;;;;;18.63;11.50;;;10.10;99.90;;;;;;5038435;28;20038;-56
2023/01/11 01:10:05;;;;;;;22.58;11.98;;;9.40;99.90;;;;;;5037703;28;20124;-57
2023/01/11 01:15:18;;;;;;;21.83;11.27;;;10.40;99.90;;;;;;5039105;28;20411;-54
2023/01/11 01:17:44;;;;;;;19.40;12.00;;;9.50;99.90;;;;;;5040921;28;20029;-57
2023/01/11 01:20:10;;;;;;;23.48;12.05;;;9.60;99.90;;;;;;5036770;28;20025;-57
2023/01/11 01:22:37;;;;;;;19.33;12.73;;;9.70;99.90;;;;;;5023711;28;20037;-54
2023/01/11 01:25:03;;;;;;;22.85;12.10;;;9.70;99.90;;;;;;5033369;28;20044;-55
2023/01/11 01:27:33;;;;;;;19.95;12.98;;;9.70;99.90;;;;;;5040479;28;20495;-56
2023/01/11 01:29:58;;;;;;;21.35;13.68;;;9.80;99.90;;;;;;5014390;28;20522;-53
2023/01/11 01:32:24;;;;;;;22.85;13.35;;;9.30;99.90;;;;;;5022128;28;20045;-56
2023/01/11 01:34:50;;;;;;;21.15;10.95;;;9.80;99.90;;;;;;5040224;28;20036;-53
2023/01/11 01:37:16;;;;;;;19.40;12.30;;;10.10;99.90;;;;;;5036647;28;20624;-56
2023/01/11 01:39:42;;;;;;;18.52;11.73;;;10.10;99.90;;;;;;5040245;28;20063;-55
2023/01/11 01:42:16;;;;;;;20.42;12.88;;;10.10;99.90;;;;;;5034339;28;20503;-51
2023/01/11 01:45:05;;;;;;;20.50;12.60;;;9.90;99.90;;;;;;5021100;28;20132;-55
2023/01/11 01:47:57;;;;;;;25.70;13.32;;;10.50;99.90;;;;;;5016678;28;20044;-54
2023/01/11 01:50:39;;;;;;;22.48;13.20;;;10.00;99.90;;;;;;5037081;28;20044;-55
2023/01/11 01:53:36;;;;;;;22.98;15.10;;;10.30;99.90;;;;;;5027241;28;20033;-51
2023/01/11 01:56:06;;;;;;;26.17;13.82;;;10.50;99.90;;;;;;5021975;28;20068;-52
2023/01/11 01:58:42;;;;;;;23.67;15.20;;;9.90;99.90;;;;;;5035162;28;20048;-51
2023/01/11 02:04:09;;;;;;;31.65;16.40;;;10.40;99.90;;;;;;5031932;28;20415;-56
2023/01/11 02:06:38;;;;;;;24.70;15.02;;;;;;;;;;5034218;28;20518;-54
2023/01/11 02:09:28;;;;;;;24.33;13.02;;;10.30;99.90;;;;;;5034468;28;20073;-49
2023/01/11 02:12:14;;;;;;;26.05;14.88;;;10.30;99.90;;;;;;5037641;28;20588;-54
2023/01/11 02:14:42;;;;;;;18.80;10.65;;;10.60;99.90;;;;;;5033616;28;20053;-55
2023/01/11 02:17:09;;;;;;;23.75;12.95;;;10.40;99.90;;;;;;5007510;28;20479;-56
2023/01/11 02:19:56;;;;;;;24.25;14.02;;;10.60;99.90;;;;;;5017679;28;20053;-56
2023/01/11 02:22:34;;;;;;;23.85;14.23;;;10.20;99.90;;;;;;5033155;28;20048;-56
2023/01/11 02:24:59;;;;;;;22.63;13.77;;;10.30;99.90;;;;;;5014113;28;20041;-56
2023/01/11 02:27:59;;;;;;;21.88;13.35;;;10.30;99.90;;;;;;5036811;28;20418;-55
2023/01/11 02:30:43;;;;;;;27.50;13.85;;;10.40;99.90;;;;;;5031694;28;20044;-53
2023/01/11 02:33:23;;;;;;;27.40;15.80;;;10.20;99.90;;;;;;5030204;28;20037;-54
2023/01/11 02:36:00;;;;;;;20.42;13.20;;;10.20;99.90;;;;;;5033033;28;20268;-53
2023/01/11 02:38:41;;;;;;;25.58;14.55;;;10.10;99.90;;;;;;5033854;28;20481;-48
2023/01/11 02:47:21;;;;;;;21.08;8.05;;;10.40;99.90;;;;;;5027261;28;20042;-53
2023/01/11 02:50:38;;;;;;;21.80;7.88;;;10.40;99.90;;;;;;5031128;28;20045;-53
2023/01/11 02:53:31;;;;;;;19.85;7.80;;;10.20;99.90;;;;;;5018710;28;20042;-53
2023/01/11 02:56:00;;;;;;;19.00;7.22;;;10.80;99.90;;;;;;5036593;28;20119;-53
2023/01/11 02:58:31;;;;;;;24.98;8.60;;;10.40;99.90;;;;;;5011890;28;20046;-48
2023/01/11 03:00:58;;;;;;;22.13;7.28;;;10.50;99.90;;;;;;5038287;28;20511;-52
2023/01/11 03:03:29;;;;;;;21.80;6.20;;;11.00;99.90;;;;;;5035531;28;20049;-51
2023/01/11 03:06:10;;;;;;;22.23;5.70;;;10.40;99.90;;;;;;5037084;28;20128;-52
2023/01/11 03:08:44;;;;;;;22.25;6.20;;;10.60;99.90;;;;;;5032584;28;20067;-53
2023/01/11 03:14:41;;;;;;;26.58;6.40;;;10.60;99.90;;;;;;5037969;28;20380;-53
2023/01/11 03:17:26;;;;;;;17.23;5.45;;;10.50;99.90;;;;;;5021333;28;20216;-57
2023/01/11 03:19:53;;;;;;;24.65;5.95;;;;;;;;;;5023909;28;20077;-57
2023/01/11 03:22:38;;;;;;;21.45;6.03;;;10.60;99.90;;;;;;5033249;28;20496;-53
2023/01/11 03:25:18;;;;;;;22.65;5.57;;;10.80;99.90;;;;;;5028386;28;20594;-53
2023/01/11 03:27:50;;;;;;;20.25;4.75;;;10.20;99.90;;;;;;5032286;28;20116;-50
2023/01/11 03:30:38;;;;;;;30.10;7.18;;;10.50;99.90;;;;;;5030942;28;20041;-52
2023/01/11 03:33:36;;;;;;;18.08;4.82;;;10.00;99.90;;;;;;5015000;28;20103;-53
2023/01/11 03:36:14;;;;;;;24.65;6.57;;;10.20;99.90;;;;;;5030176;28;20084;-50
2023/01/11 03:39:11;;;;;;;21.15;5.88;;;10.40;99.90;;;;;;5033826;28;20037;-49
2023/01/11 03:41:40;;;;;;;17.17;4.78;;;10.60;99.90;;;;;;5029097;28;20048;-49
2023/01/11 03:44:09;;;;;;;23.52;4.90;;;10.30;99.90;;;;;;5029635;28;20049;-53
2023/01/11 03:46:47;;;;;;;14.30;4.40;;;10.90;99.90;;;;;;5029438;28;20091;-49
2023/01/11 03:49:29;;;;;;;19.98;4.70;;;10.60;99.90;;;;;;5031362;28;20537;-52
2023/01/11 03:51:57;;;;;;;18.23;4.25;;;10.20;99.90;;;;;;5034110;28;20087;-50
2023/01/11 03:54:25;;;;;;;16.13;5.10;;;;;;;;;;5033686;28;20041;-54
2023/01/11 03:57:09;;;;;;;21.25;4.88;;;9.90;99.90;;;;;;5033313;28;20041;-53
2023/01/11 03:59:34;;;;;;;12.90;4.30;;;9.90;99.90;;;;;;5033063;28;20041;-51
2023/01/11 04:02:01;;;;;;;12.20;4.07;;;10.20;99.90;;;;;;5033440;28;20038;-53
2023/01/11 04:04:27;;;;;;;21.92;4.68;;;9.40;99.90;;;;;;5033458;28;20045;-51
2023/01/11 04:06:53;;;;;;;23.27;5.65;;;9.70;99.90;;;;;;5033158;28;20033;-50
2023/01/11 04:09:19;;;;;;;29.30;5.78;;;10.20;99.90;;;;;;5033142;28;20043;-51
2023/01/11 04:11:46;;;;;;;35.85;7.43;;;10.30;99.90;;;;;;5033124;28;20038;-50
2023/01/11 04:14:12;;;;;;;28.60;6.82;;;9.90;99.90;;;;;;5033002;28;20033;-54
2023/01/11 04:16:37;;;;;;;31.20;8.18;;;9.70;99.90;;;;;;5032979;28;20083;-51
2023/01/11 04:19:03;;;;;;;29.73;6.65;;;10.50;99.90;;;;;;5032533;28;20565;-50
2023/01/11 04:21:29;;;;;;;27.30;6.13;;;10.60;99.90;;;;;;5033227;28;20560;-52
2023/01/11 04:23:58;;;;;;;32.50;8.02;;;10.20;99.90;;;;;;5032690;28;20438;-53
2023/01/11 04:26:23;;;;;;;28.35;8.23;;;10.00;99.90;;;;;;5033117;28;20080;-53
2023/01/11 04:28:49;;;;;;;18.67;4.50;;;10.40;99.90;;;;;;5031827;28;20507;-52
2023/01/11 04:31:15;;;;;;;21.45;5.88;;;10.20;99.90;;;;;;5032790;28;20073;-50
2023/01/11 04:33:41;;;;;;;23.58;5.60;;;10.20;99.90;;;;;;5014567;28;20044;-50
2023/01/11 04:36:09;;;;;;;19.52;5.30;;;9.90;99.90;;;;;;5032876;28;20033;-52
2023/01/11 04:38:36;;;;;;;21.95;5.00;;;9.40;99.90;;;;;;5032111;28;20076;-53
2023/01/11 04:43:47;;;;;;;18.95;4.50;;;10.00;99.90;;;;;;5032481;28;20087;-50
2023/01/11 04:46:12;;;;;;;15.85;4.35;;;9.60;99.90;;;;;;5032835;28;20388;-51
2023/01/11 04:48:39;;;;;;;20.33;4.60;;;10.20;99.90;;;;;;5031864;28;20106;-50
2023/01/11 04:51:06;;;;;;;26.98;6.57;;;10.10;99.90;;;;;;5028646;28;20057;-52
2023/01/11 04:53:32;;;;;;;24.60;5.28;;;9.90;99.90;;;;;;5032509;28;20048;-51
2023/01/11 04:56:06;;;;;;;25.15;6.70;;;10.00;99.90;;;;;;5032366;28;20025;-53
2023/01/11 04:58:35;;;;;;;31.73;6.13;;;9.90;99.90;;;;;;5032051;28;20084;-54
2023/01/11 05:01:08;;;;;;;33.10;6.38;;;10.10;99.90;;;;;;5031336;28;20044;-52
2023/01/11 05:03:43;;;;;;;32.63;5.68;;;9.40;99.90;;;;;;5032349;28;20045;-50
2023/01/11 05:06:08;;;;;;;26.20;5.90;;;9.70;99.90;;;;;;5032327;28;20043;-52
2023/01/11 05:08:34;;;;;;;31.13;6.35;;;9.80;99.90;;;;;;5031504;28;20132;-51
2023/01/11 05:11:02;;;;;;;27.33;6.15;;;10.10;99.90;;;;;;5032469;28;20026;-50
2023/01/11 05:13:40;;;;;;;25.60;7.00;;;9.50;99.90;;;;;;5032111;28;20045;-50
2023/01/11 05:16:06;;;;;;;26.45;5.00;;;10.10;99.90;;;;;;5027018;28;20029;-49
2023/01/11 05:18:32;;;;;;;19.45;4.65;;;9.70;99.90;;;;;;5030285;28;20064;-52
2023/01/11 05:20:57;;;;;;;28.90;6.25;;;9.60;99.90;;;;;;5014465;28;20434;-51
2023/01/11 05:23:23;;;;;;;20.55;4.32;;;9.30;99.90;;;;;;5032325;28;20132;-50
2023/01/11 05:25:49;;;;;;;24.05;5.63;;;9.20;99.90;;;;;;5031735;28;20145;-52
2023/01/11 05:28:14;;;;;;;18.10;5.18;;;9.40;99.90;;;;;;5031234;28;20384;-49
2023/01/11 05:30:40;;;;;;;18.73;4.95;;;9.00;99.90;;;;;;5031943;28;20040;-48
2023/01/11 05:33:08;;;;;;;18.85;5.35;;;9.50;99.90;;;;;;5014162;28;20036;-51
2023/01/11 05:35:43;;;;;;;19.92;4.88;;;9.20;99.90;;;;;;5031495;28;20124;-51
2023/01/11 05:38:08;;;;;;;;;;;9.70;99.90;;;;;;5032280;28;20036;-50
2023/01/11 05:40:34;;;;;;;21.52;4.53;;;8.80;99.90;;;;;;5013771;28;19920;-49
2023/01/11 05:43:03;;;;;;;17.92;3.88;;;9.30;99.90;;;;;;5039728;28;20029;-50
2023/01/11 05:45:32;;;;;;;19.48;4.50;;;9.00;99.90;;;;;;5040280;28;20112;-50
2023/01/11 05:47:58;;;;;;;18.90;4.65;;;9.60;99.90;;;;;;5042760;28;20104;-50
2023/01/11 05:50:25;;;;;;;26.95;5.43;;;8.90;99.90;;;;;;5047293;28;20041;-50
2023/01/11 05:52:51;;;;;;;27.17;5.50;;;9.20;99.90;;;;;;5048323;28;20577;-50
2023/01/11 05:55:16;;;;;;;17.35;5.30;;;8.80;99.90;;;;;;5049599;28;20044;-51
2023/01/11 05:57:43;;;;;;;26.30;6.07;;;8.70;99.90;;;;;;5032170;28;20038;-52
2023/01/11 06:00:10;;;;;;;30.38;6.80;;;9.70;99.90;;;;;;5031180;28;20056;-47
2023/01/11 06:02:37;;;;;;;30.67;5.90;;;8.90;99.90;;;;;;5031427;28;20136;-49
2023/01/11 06:05:04;;;;;;;26.77;6.28;;;9.30;99.90;;;;;;5030933;28;20099;-49
2023/01/11 06:07:30;;;;;;;35.38;6.78;;;9.00;99.90;;;;;;5030628;28;20116;-48
2023/01/11 06:09:55;;;;;;;28.98;6.07;;;8.80;99.90;;;;;;5031037;28;20117;-52
2023/01/11 06:12:21;;;;;;;26.70;4.05;;;10.00;99.90;;;;;;5030853;28;20486;-50
2023/01/11 06:14:47;;;;;;;22.40;5.60;;;9.40;99.90;;;;;;5030870;28;20156;-52
2023/01/11 06:17:12;;;;;;;19.23;4.40;;;9.20;99.90;;;;;;5034842;28;20047;-47
2023/01/11 06:19:38;;;;;;;20.48;5.03;;;8.80;99.90;;;;;;5032729;28;20058;-52
2023/01/11 06:22:03;;;;;;;17.05;3.65;;;9.30;99.90;;;;;;5031135;28;20049;-50
2023/01/11 06:24:29;;;;;;;15.35;3.90;;;9.10;99.90;;;;;;5030815;28;20037;-49
2023/01/11 06:26:55;;;;;;;13.40;3.03;;;9.10;99.90;;;;;;5029494;28;20044;-50
2023/01/11 06:29:20;;;;;;;15.05;3.13;;;9.30;99.90;;;;;;5030633;28;20037;-52
2023/01/11 06:31:47;;;;;;;17.40;4.10;;;9.30;99.90;;;;;;5030601;28;20112;-50
2023/01/11 06:34:13;;;;;;;19.98;3.38;;;9.00;99.90;;;;;;5030377;28;20096;-49
2023/01/11 06:36:39;;;;;;;14.20;3.47;;;8.90;99.90;;;;;;5030695;28;20069;-50
2023/01/11 06:39:05;;;;;;;16.73;3.88;;;8.90;99.90;;;;;;5030668;28;20041;-51
2023/01/11 06:41:31;;;;;;;15.20;3.75;;;9.60;99.90;;;;;;5030676;28;20103;-52
2023/01/11 06:44:02;;;;;;;13.95;3.35;;;9.30;99.90;;;;;;5030813;28;20247;-48
2023/01/11 06:46:29;;;;;;;20.27;3.58;;;8.70;99.90;;;;;;5030065;28;20057;-49
2023/01/11 06:48:54;;;;;;;17.70;4.40;;;8.80;99.90;;;;;;5022515;28;20091;-51
2023/01/11 06:51:20;;;;;;;18.95;3.97;;;9.40;99.90;;;;;;5030431;28;20042;-49
2023/01/11 06:53:46;;;;;;;19.35;4.57;;;8.90;99.90;;;;;;5030201;28;20034;-50
2023/01/11 06:56:14;;;;;;;15.80;3.90;;;8.40;99.90;;;;;;5029960;28;20125;-51
2023/01/11 06:58:42;;;;;;;17.95;3.33;;;9.30;99.90;;;;;;5020687;28;20392;-50
2023/01/11 07:01:08;;;;;;;16.08;3.53;;;9.00;99.90;;;;;;5029833;28;20033;-53
2023/01/11 07:03:34;;;;;;;15.57;3.15;;;9.70;99.90;;;;;;5030423;28;20462;-50
2023/01/11 07:06:00;;;;;;;13.75;3.80;;;8.90;99.90;;;;;;5030315;28;20091;-49
2023/01/11 07:08:26;;;;;;;13.73;3.40;;;9.10;99.90;;;;;;5029218;28;20521;-50
2023/01/11 07:10:52;;;;;;;11.60;3.50;;;9.40;99.90;;;;;;5030034;28;20101;-49
2023/01/11 07:13:18;;;;;;;16.60;2.88;;;9.10;99.90;;;;;;5011796;28;20203;-50
2023/01/11 07:15:47;;;;;;;17.67;3.17;;;8.90;99.90;;;;;;5029026;28;20041;-51
2023/01/11 07:18:13;;;;;;;10.50;3.42;;;9.20;99.90;;;;;;5021317;28;20037;-51
2023/01/11 07:20:39;;;;;;;11.27;3.10;;;8.70;99.90;;;;;;5030274;28;20037;-50
2023/01/11 07:23:06;;;;;;;12.63;3.47;;;8.50;99.90;;;;;;5029331;28;20040;-53
2023/01/11 07:25:32;;;;;;;15.20;3.60;;;9.20;99.90;;;;;;5029927;28;20045;-52
2023/01/11 07:28:03;;;;;;;16.38;3.08;;;;;;;;;;5029341;28;20041;-51
2023/01/11 07:30:31;;;;;;;13.73;2.58;;;8.40;99.90;;;;;;5029912;28;20037;-49
2023/01/11 07:32:57;;;;;;;10.60;2.67;;;8.70;99.90;;;;;;5030205;28;20231;-52
2023/01/11 07:35:23;;;;;;;15.93;3.60;;;9.00;99.90;;;;;;5029942;28;20036;-48
2023/01/11 07:37:49;;;;;;;12.98;2.75;;;8.30;99.90;;;;;;5029265;28;20614;-52
2023/01/11 07:40:16;;;;;;;12.57;3.42;;;9.00;99.90;;;;;;5020998;28;20128;-52
2023/01/11 07:43:17;;;;;;;18.45;4.15;;;8.70;99.90;;;;;;5027058;28;20050;-50
2023/01/11 07:45:48;;;;;;;11.50;2.47;;;8.70;99.90;;;;;;5027968;28;20080;-48
2023/01/11 07:48:19;;;;;;;13.50;2.85;;;8.30;99.90;;;;;;5027977;28;20188;-49
2023/01/11 07:50:45;;;;;;;15.27;3.65;;;8.60;99.90;;;;;;5028897;28;20048;-48
2023/01/11 07:53:12;;;;;;;11.20;3.55;;;8.90;99.90;;;;;;5023655;28;20049;-51
2023/01/11 07:55:38;;;;;;;16.20;4.72;;;8.50;99.90;;;;;;5027698;28;20167;-50
2023/01/11 07:58:06;;;;;;;9.90;2.60;;;8.50;99.90;;;;;;5020915;28;20030;-48
2023/01/11 08:00:31;;;;;;;15.52;2.90;;;8.60;99.90;;;;;;5029520;28;20044;-48
2023/01/11 08:02:59;;;;;;;14.40;2.75;;;8.50;99.90;;;;;;5029406;28;20038;-50
2023/01/11 08:05:24;;;;;;;14.13;3.40;;;8.50;99.90;;;;;;5029732;28;20446;-49
2023/01/11 08:07:50;;;;;;;11.57;3.00;;;8.20;99.90;;;;;;5010971;28;20048;-49
2023/01/11 08:10:16;;;;;;;14.82;3.50;;;8.50;99.90;;;;;;5022959;28;20034;-49
2023/01/11 08:15:28;;;;;;;13.77;3.17;;;8.60;81.60;;;;;;5026127;28;20045;-48
2023/01/11 08:17:54;;;;;;;11.05;2.75;;;8.10;1.00;;;;;;5028990;28;20534;-49
2023/01/11 08:20:19;;;;;;;13.25;3.75;;;8.20;1.00;;;;;;5029326;28;20123;-52
2023/01/11 08:22:45;;;;;;;12.85;2.78;;;8.40;1.00;;;;;;5029258;28;20514;-47
2023/01/11 08:25:11;;;;;;;12.70;3.20;;;8.30;1.00;;;;;;5029345;28;20038;-52
2023/01/11 08:27:37;;;;;;;16.10;3.88;;;7.90;1.00;;;;;;5028940;28;20036;-50
2023/01/11 08:30:03;;;;;;;19.20;3.42;;;8.60;99.90;;;;;;5029205;28;20037;-52
2023/01/11 08:32:29;;;;;;;10.40;2.75;;;7.90;1.00;;;;;;5029262;28;20208;-48
2023/01/11 08:34:54;;;;;;;13.13;3.03;;;7.90;99.90;;;;;;5029093;28;20120;-50
2023/01/11 08:37:21;;;;;;;11.63;2.75;;;;;;;;;;5032379;28;20041;-52
2023/01/11 08:39:47;;;;;;;14.93;3.38;;;8.00;99.90;;;;;;5032711;28;20318;-48
2023/01/11 08:42:13;;;;;;;16.35;3.70;;;8.40;99.90;;;;;;5032719;28;20071;-48
2023/01/11 08:44:39;;;;;;;16.08;3.35;;;;;;;;;;5032685;28;20528;-47
2023/01/11 08:47:05;;;;;;;10.70;3.20;;;8.10;99.90;;;;;;5032017;28;20034;-48
2023/01/11 08:49:30;;;;;;;17.33;3.55;;;8.20;99.90;;;;;;5032077;28;20040;-48
2023/01/11 08:51:56;;;;;;;12.50;3.75;;;8.10;99.90;;;;;;5032837;28;20033;-51
2023/01/11 08:54:22;;;;;;;13.02;3.15;;;8.40;99.90;;;;;;5024229;28;20044;-47
2023/01/11 08:56:48;;;;;;;14.02;3.67;;;;;;;;;;5032242;28;20148;-48
2023/01/11 08:59:14;;;;;;;14.75;3.42;;;8.00;99.90;;;;;;5032037;28;20065;-49
2023/01/11 09:01:39;;;;;;;17.50;3.50;;;7.70;99.90;;;;;;5032104;28;20072;-51
2023/01/11 09:04:05;;;;;;;11.48;3.03;;;8.00;99.90;;;;;;5027138;28;20034;-51
2023/01/11 09:06:31;;;;;;;14.98;2.83;;;8.10;99.90;;;;;;5029622;28;20120;-48
2023/01/11 09:08:57;;;;;;;13.30;3.10;;;7.90;99.90;;;;;;5020204;28;20045;-48
2023/01/11 09:14:07;;;;;;;20.88;5.32;;;7.90;99.90;;;;;;5032196;28;20033;-48
2023/01/11 09:16:33;;;;;;;13.93;3.55;;;7.80;99.90;;;;;;5031837;28;20514;-51
2023/01/11 09:18:58;;;;;;;18.75;3.92;;;7.90;99.90;;;;;;5031637;28;20033;-49
2023/01/11 09:21:24;;;;;;;14.98;3.25;;;7.80;99.90;;;;;;5032101;28;20053;-51
2023/01/11 09:23:50;;;;;;;14.10;3.20;;;7.50;99.90;;;;;;5031991;28;20045;-48
2023/01/11 09:26:16;;;;;;;15.27;3.13;;;7.90;99.90;;;;;;5032108;28;20117;-50
2023/01/11 09:28:41;;;;;;;12.70;3.67;;;7.70;99.90;;;;;;5013259;28;20041;-48
2023/01/11 09:31:07;;;;;;;13.70;3.05;;;8.00;99.90;;;;;;5031820;28;20064;-49
2023/01/11 09:33:33;;;;;;;14.57;3.03;;;7.70;99.90;;;;;;5031736;28;20515;-50
2023/01/11 09:36:01;;;;;;;15.07;3.75;;;8.10;99.90;;;;;;5031855;28;20038;-50
2023/01/11 09:38:32;;;;;;;7.32;2.05;;;7.90;99.90;;;;;;5030659;28;20059;-49
2023/01/11 09:41:35;;;;;;;14.77;2.83;;;8.30;99.90;;;;;;5024467;28;20113;-49
2023/01/11 09:44:09;;;;;;;13.98;2.97;;;8.30;99.90;;;;;;5023484;28;20132;-50
2023/01/11 09:46:40;;;;;;;12.18;2.42;;;8.20;99.90;;;;;;5031212;28;20450;-50
2023/01/11 09:49:15;;;;;;;10.60;2.72;;;8.70;99.90;;;;;;5013069;28;20414;-50
2023/01/11 09:51:42;;;;;;;14.27;3.35;;;8.20;99.90;;;;;;5031291;28;20037;-50
2023/01/11 09:54:14;;;;;;;10.90;3.63;;;8.90;99.90;;;;;;5031157;28;20395;-51
2023/01/11 09:56:45;;;;;;;11.52;3.33;;;;;;;;;;5029441;28;20121;-51
2023/01/11 09:59:43;;;;;;;11.30;2.58;;;8.00;99.90;;;;;;5038656;28;20044;-50
2023/01/11 10:02:39;;;;;;;14.20;2.67;;;8.40;99.90;;;;;;5029729;28;20038;-47
2023/01/11 10:05:50;;;;;;;14.45;2.92;;;8.70;99.90;;;;;;5032073;28;20080;-52
2023/01/11 10:08:49;;;;;;;17.58;2.42;;;8.50;99.90;;;;;;5032388;28;20044;-48
2023/01/11 10:11:42;;;;;;;17.30;3.50;;;8.50;99.90;;;;;;5029121;28;20487;-49
2023/01/11 10:14:12;;;;;;;19.73;3.47;;;8.20;99.90;;;;;;5035195;28;20033;-50
2023/01/11 10:17:03;;;;;;;12.05;2.80;;;8.90;99.90;;;;;;5034030;28;20033;-52
2023/01/11 10:19:44;;;;;;;15.68;4.25;;;9.10;99.90;;;;;;5033690;28;20044;-52
2023/01/11 10:22:17;;;;;;;13.10;3.47;;;8.40;99.90;;;;;;5031313;28;20037;-50
2023/01/11 10:24:55;;;;;;;9.52;2.88;;;9.10;11.80;;;;;;5036951;28;20044;-49
2023/01/11 10:27:32;;;;;;;13.95;3.22;;;8.90;1.00;;;;;;5038331;28;20045;-50
2023/01/11 10:30:22;;;;;;;10.38;3.47;;;8.40;14.10;;;;;;5027699;28;20084;-51
2023/01/11 10:39:42;;;;;;;13.45;3.05;;;8.70;1.00;;;;;;5035896;28;20116;-51
2023/01/11 10:41:59;;;;;;;13.00;2.95;;;9.50;1.00;;;;;;5030582;28;20040;-52
2023/01/11 10:44:40;;;;;;;12.57;2.85;;;8.90;1.00;;;;;;5038245;28;20033;-49
2023/01/11 10:47:15;;;;;;;16.98;3.60;;;9.10;1.00;;;;;;5027312;28;20029;-49
2023/01/11 10:49:49;;;;;;;12.52;4.05;;;9.30;1.00;;;;;;5036404;28;20785;-51
2023/01/11 10:52:43;;;;;;;22.15;4.40;;;9.00;1.00;;;;;;5033128;28;20045;-49
2023/01/11 10:55:47;;;;;;;14.43;2.65;;;9.60;99.90;;;;;;5040792;28;20029;-49
2023/01/11 10:58:41;;;;;;;15.77;3.08;;;9.20;99.90;;;;;;5008777;28;20045;-50
2023/01/11 11:01:39;;;;;;;16.48;3.88;;;9.40;99.90;;;;;;5030272;28;20049;-49
2023/01/11 11:04:28;;;;;;;15.35;3.95;;;8.90;99.90;;;;;;5027746;28;20487;-50
2023/01/11 11:07:23;;;;;;;15.93;3.13;;;9.50;99.90;;;;;;5015473;28;20123;-52
2023/01/11 11:10:28;;;;;;;10.63;2.65;;;8.90;99.90;;;;;;5032887;28;20095;-49
2023/01/11 11:13:13;;;;;;;16.65;3.90;;;9.90;99.90;;;;;;5031295;28;20502;-50
2023/01/11 11:16:03;;;;;;;14.20;3.50;;;9.50;99.90;;;;;;5034414;28;20119;-48
2023/01/11 11:18:29;;;;;;;13.68;3.00;;;9.50;99.90;;;;;;5012115;28;20053;-48
2023/01/11 11:21:01;;;;;;;16.85;3.45;;;9.10;99.90;;;;;;5014871;28;20369;-51
2023/01/11 11:23:28;;;;;;;15.57;3.33;;;9.10;99.90;;;;;;5034784;28;20388;-52
2023/01/11 11:26:00;;;;;;;16.77;4.18;;;9.20;99.90;;;;;;5038899;28;20387;-52
2023/01/11 11:28:29;;;;;;;16.90;3.70;;;9.20;99.90;;;;;;5033556;28;20041;-49
2023/01/11 11:31:06;;;;;;;17.60;4.22;;;10.00;99.90;;;;;;5036031;28;20387;-51
2023/01/11 11:33:38;;;;;;;11.75;2.95;;;9.20;99.90;;;;;;5015436;28;20253;-48
2023/01/11 11:36:11;;;;;;;13.65;3.40;;;9.60;99.90;;;;;;5035361;28;20038;-48
2023/01/11 11:38:39;;;;;;;20.05;3.30;;;9.60;99.90;;;;;;5031706;28;20182;-49
2023/01/11 11:41:09;;;;;;;11.57;3.83;;;10.10;99.90;;;;;;5039020;28;20041;-49
2023/01/11 11:43:39;;;;;;;16.02;4.32;;;9.80;99.90;;;;;;5033876;28;20337;-48
2023/01/11 11:46:14;;;;;;;18.73;4.72;;;9.80;99.90;;;;;;5037346;28;20043;-50
2023/01/11 11:48:44;;;;;;;13.13;2.90;;;10.60;1.00;;;;;;5031856;28;20470;-49
2023/01/11 11:51:19;;;;;;;14.95;3.75;;;11.70;1.00;;;;;;5036204;28;20368;-48
2023/01/11 11:53:54;;;;;;;18.33;4.65;;;11.70;1.00;;;;;;5030567;28;20087;-48
2023/01/11 11:56:22;;;;;;;;;;;10.30;1.00;;;;;;5036376;28;20043;-49
2023/01/11 11:58:49;;;;;;;15.93;3.20;;;10.40;1.00;;;;;;5036677;28;19929;-47
2023/01/11 12:01:30;;;;;;;16.02;3.60;;;9.70;1.00;;;;;;5033246;28;20049;-49
2023/01/11 12:04:14;;;;;;;14.23;3.25;;;10.10;1.00;;;;;;5035154;28;20041;-49
2023/01/11 12:06:40;;;;;;;12.45;2.97;;;10.20;1.00;;;;;;5033666;28;20040;-51
2023/01/11 12:09:39;;;;;;;18.45;4.15;;;;;;;;;;5034877;28;20498;-50
2023/01/11 12:12:05;;;;;;;12.40;3.42;;;10.10;1.00;;;;;;4994584;28;20083;-48
2023/01/11 12:14:34;;;;;;;17.52;4.10;;;9.90;1.00;;;;;;5033925;28;20124;-50
2023/01/11 12:17:21;;;;;;;17.73;4.60;;;10.70;1.00;;;;;;5037747;28;20029;-49
2023/01/11 12:19:46;;;;;;;12.75;3.08;;;10.20;1.00;;;;;;5033789;28;20049;-49
2023/01/11 12:22:17;;;;;;;17.05;3.95;;;10.40;1.00;;;;;;5038716;28;20029;-50
2023/01/11 12:24:45;;;;;;;12.80;3.95;;;10.60;1.00;;;;;;5041449;28;20052;-50
2023/01/11 12:27:16;;;;;;;13.95;2.72;;;11.30;99.90;;;;;;5035941;28;20104;-50
2023/01/11 12:29:43;;;;;;;10.70;2.38;;;11.80;99.90;;;;;;5040920;28;20051;-48
2023/01/11 12:32:21;;;;;;;14.32;3.17;;;11.50;99.90;;;;;;5034164;28;20041;-49
2023/01/11 12:35:18;;;;;;;16.42;5.25;;;11.20;99.90;;;;;;5039364;28;20069;-49
2023/01/11 12:38:12;;;;;;;21.00;4.55;;;10.40;99.90;;;;;;5034451;28;20095;-51
2023/01/11 12:41:04;;;;;;;15.02;4.55;;;10.10;99.90;;;;;;5037963;28;20037;-49
2023/01/11 12:43:50;;;;;;;15.25;3.80;;;10.40;1.00;;;;;;5006449;28;20048;-48
2023/01/11 12:46:22;;;;;;;21.30;4.15;;;11.00;99.90;;;;;;5041692;28;20060;-50
2023/01/11 12:49:18;;;;;;;27.30;5.50;;;10.50;99.90;;;;;;5033057;28;20503;-51
2023/01/11 12:51:54;;;;;;;18.13;4.13;;;10.40;99.90;;;;;;5036980;28;20056;-52
2023/01/11 12:54:32;;;;;;;19.00;4.53;;;10.50;1.00;;;;;;5033979;28;20037;-52
2023/01/11 12:57:03;;;;;;;11.18;3.03;;;9.80;1.00;;;;;;5021630;28;20041;-51
2023/01/11 12:59:38;;;;;;;17.48;3.78;;;9.70;1.00;;;;;;5019936;28;20522;-50
2023/01/11 13:02:13;;;;;;;19.33;5.28;;;9.90;1.00;;;;;;5036439;28;20045;-51
2023/01/11 13:04:52;;;;;;;19.05;4.68;;;10.50;1.00;;;;;;5039532;28;20042;-49
2023/01/11 13:07:20;;;;;;;18.63;4.00;;;;;;;;;;5034925;28;20084;-46
2023/01/11 13:10:12;;;;;;;19.67;4.47;;;10.10;1.00;;;;;;5039982;28;20495;-49
2023/01/11 13:12:47;;;;;;;19.70;4.85;;;10.20;99.90;;;;;;5027214;28;20049;-51
2023/01/11 13:15:34;;;;;;;15.77;3.60;;;11.00;99.90;;;;;;5034183;28;20034;-52
2023/01/11 13:18:23;;;;;;;20.90;3.95;;;10.20;99.90;;;;;;5037118;28;20029;-50
2023/01/11 13:21:08;;;;;;;20.15;4.70;;;11.00;99.90;;;;;;5033686;28;20046;-49
2023/01/11 13:23:45;;;;;;;19.27;4.30;;;10.60;99.90;;;;;;5036774;28;20038;-49
2023/01/11 13:26:14;;;;;;;20.60;4.15;;;10.60;99.90;;;;;;5039289;28;20049;-49
2023/01/11 13:28:42;;;;;;;18.73;4.13;;;10.30;99.90;;;;;;5035039;28;20045;-50
2023/01/11 13:31:11;;;;;;;18.48;4.00;;;10.50;99.90;;;;;;5038752;28;20065;-49
2023/01/11 13:33:42;;;;;;;13.73;3.28;;;10.50;99.90;;;;;;5035082;28;20113;-47
2023/01/11 13:36:14;;;;;;;16.05;4.00;;;10.70;99.90;;;;;;5045670;28;20087;-49
2023/01/11 13:39:00;;;;;;;14.23;3.65;;;11.10;99.90;;;;;;5033545;28;20518;-47
2023/01/11 13:41:45;;;;;;;15.63;4.20;;;10.60;99.90;;;;;;5035327;28;20395;-48
2023/01/11 13:44:16;;;;;;;19.83;4.65;;;10.60;99.90;;;;;;5030992;28;20033;-49
2023/01/11 13:46:51;;;;;;;21.90;3.97;;;11.80;99.90;;;;;;5039199;28;20591;-49